Time;durP1;ratioP1;P1;durP2;ratioP2;P2;SDS_P1;SDS_P2;PMS_P1;PMS_P2;Temp;Humidity;BMP_temperature;BMP_pressure;BME280_temperature;BME280_humidity;BME280_pressure;Samples;Min_cycle;Max_cycle;Signal;HPM_P1;HPM_P2
2022/10/14 00:00:44;;;;;;;62.40;5.13;;;;;;;;;;5111745;28;20442;-70
2022/10/14 00:03:11;;;;;;;59.60;4.63;;;;;;;;;;5111580;28;20459;-70
2022/10/14 00:05:40;;;;;;;63.30;5.87;;;;;;;;;;5111671;28;20464;-70
2022/10/14 00:08:08;;;;;;;61.40;5.43;;;;;;;;;;5111638;28;20458;-70
2022/10/14 00:10:37;;;;;;;60.20;4.77;;;;;;;;;;5111729;28;20517;-69
2022/10/14 00:13:04;;;;;;;61.97;5.90;;;;;;;;;;5111928;28;20456;-70
2022/10/14 00:15:31;;;;;;;60.37;5.00;;;;;;;;;;5111016;28;21011;-70
2022/10/14 00:17:59;;;;;;;58.93;3.73;;;;;;;;;;5111716;28;20452;-70
2022/10/14 00:20:28;;;;;;;61.87;6.30;;;;;;;;;;5111398;28;20462;-70
2022/10/14 00:22:55;;;;;;;62.63;6.17;;;;;;;;;;5111892;28;20548;-70
2022/10/14 00:25:24;;;;;;;60.90;4.80;;;;;;;;;;5111750;28;20464;-69
2022/10/14 00:27:52;;;;;;;60.07;4.53;;;;;;;;;;5111260;28;20466;-70
2022/10/14 00:30:19;;;;;;;60.93;4.80;;;;;;;;;;5111244;28;20977;-70
2022/10/14 00:32:46;;;;;;;60.07;4.33;;;;;;;;;;5111620;28;20449;-69
2022/10/14 00:35:15;;;;;;;59.10;4.27;;;;;;;;;;5111408;28;20492;-70
2022/10/14 00:37:42;;;;;;;61.00;5.47;;;;;;;;;;5113463;28;20812;-69
2022/10/14 00:40:09;;;;;;;64.33;6.00;;;;;;;;;;5114953;28;20448;-70
2022/10/14 00:42:37;;;;;;;60.97;5.20;;;;;;;;;;5115324;27;20447;-70
2022/10/14 00:45:10;;;;;;;62.10;5.37;;;;;;;;;;5115184;28;20448;-69
2022/10/14 00:47:37;;;;;;;62.17;4.87;;;;;;;;;;5115037;28;20457;-70
2022/10/14 00:50:05;;;;;;;62.30;6.73;;;;;;;;;;5114290;28;20470;-70
2022/10/14 00:52:34;;;;;;;62.10;6.43;;;;;;;;;;5115142;28;20945;-70
2022/10/14 00:55:02;;;;;;;61.47;6.00;;;;;;;;;;5114784;28;20986;-70
2022/10/14 00:57:30;;;;;;;60.17;4.60;;;;;;;;;;5114708;28;20970;-69
2022/10/14 01:00:00;;;;;;;64.13;6.00;;;;;;;;;;5114436;27;20474;-70
2022/10/14 01:02:27;;;;;;;61.17;4.70;;;;;;;;;;5114846;28;20452;-70
2022/10/14 01:04:54;;;;;;;61.10;5.30;;;;;;;;;;5114900;28;20447;-69
2022/10/14 01:07:25;;;;;;;61.03;6.30;;;;;;;;;;5114621;28;20961;-70
2022/10/14 01:09:58;;;;;;;65.90;5.47;;;;;;;;;;5114357;28;20444;-70
2022/10/14 01:12:29;;;;;;;60.37;4.77;;;;;;;;;;5114142;28;20456;-70
2022/10/14 01:14:59;;;;;;;62.70;4.93;;;;;;;;;;5114678;28;20452;-70
2022/10/14 01:17:31;;;;;;;60.83;5.60;;;;;;;;;;5114759;27;20491;-70
2022/10/14 01:20:10;;;;;;;60.00;5.43;;;;;;;;;;5114257;28;20445;-70
2022/10/14 01:22:38;;;;;;;61.87;4.90;;;;;;;;;;5114569;28;20500;-70
2022/10/14 01:25:12;;;;;;;66.93;4.93;;;;;;;;;;5113657;28;20456;-70
2022/10/14 01:27:48;;;;;;;62.20;5.20;;;;;;;;;;5114629;27;20458;-70
2022/10/14 01:30:18;;;;;;;60.23;4.60;;;;;;;;;;5114184;28;20452;-70
2022/10/14 01:32:59;;;;;;;64.77;6.30;;;;;;;;;;5114518;27;20483;-70
2022/10/14 01:35:31;;;;;;;61.10;5.40;;;;;;;;;;5113563;28;20480;-70
2022/10/14 01:38:00;;;;;;;62.67;5.37;;;;;;;;;;5114713;28;20451;-70
2022/10/14 01:40:32;;;;;;;60.70;4.90;;;;;;;;;;5113932;28;20450;-69
2022/10/14 01:43:00;;;;;;;61.63;5.10;;;;;;;;;;5114021;28;20939;-70
2022/10/14 01:45:31;;;;;;;63.53;4.70;;;;;;;;;;5113997;28;20474;-70
2022/10/14 01:47:59;;;;;;;61.80;4.73;;;;;;;;;;5110894;28;20460;-70
2022/10/14 01:50:27;;;;;;;67.43;6.87;;;;;;;;;;5113631;28;20451;-70
2022/10/14 01:52:56;;;;;;;61.07;5.40;;;;;;;;;;5114103;28;20458;-70
2022/10/14 01:55:24;;;;;;;60.67;5.33;;;;;;;;;;5113659;28;20468;-70
2022/10/14 01:57:53;;;;;;;61.90;5.33;;;;;;;;;;5113353;28;20608;-70
2022/10/14 02:00:20;;;;;;;59.43;4.70;;;;;;;;;;5113329;28;20449;-70
2022/10/14 02:02:49;;;;;;;59.90;4.50;;;;;;;;;;5113819;28;20543;-70
2022/10/14 02:05:19;;;;;;;59.17;4.70;;;;;;;;;;5113638;28;20451;-70
2022/10/14 02:07:48;;;;;;;59.90;4.37;;;;;;;;;;5113991;28;20463;-69
2022/10/14 02:10:22;;;;;;;59.63;4.40;;;;;;;;;;5112491;28;20449;-69
2022/10/14 02:12:56;;;;;;;63.77;6.10;;;;;;;;;;5113643;28;20447;-70
2022/10/14 02:15:28;;;;;;;62.47;5.83;;;;;;;;;;5113242;28;21014;-69
2022/10/14 02:17:58;;;;;;;62.20;4.60;;;;;;;;;;5113302;28;20449;-70
2022/10/14 02:20:28;;;;;;;64.80;5.27;;;;;;;;;;5112914;28;20456;-70
2022/10/14 02:22:59;;;;;;;61.00;4.93;;;;;;;;;;5112691;28;20457;-70
2022/10/14 02:25:28;;;;;;;79.60;5.40;;;;;;;;;;5113314;28;20997;-70
2022/10/14 02:27:55;;;;;;;60.77;4.93;;;;;;;;;;5112971;28;20453;-70
2022/10/14 02:30:22;;;;;;;60.57;5.30;;;;;;;;;;5112957;28;20454;-70
2022/10/14 02:32:50;;;;;;;61.37;5.63;;;;;;;;;;5112652;28;20449;-69
2022/10/14 02:35:18;;;;;;;62.60;5.40;;;;;;;;;;5112722;28;20483;-70
2022/10/14 02:37:47;;;;;;;61.60;5.60;;;;;;;;;;5112844;28;20995;-69
2022/10/14 02:40:15;;;;;;;58.97;5.17;;;;;;;;;;5112900;28;20813;-70
2022/10/14 02:42:43;;;;;;;59.90;4.70;;;;;;;;;;5112949;28;20448;-70
2022/10/14 02:45:11;;;;;;;60.03;5.37;;;;;;;;;;5112297;28;20471;-69
2022/10/14 02:47:38;;;;;;;63.83;5.83;;;;;;;;;;5112768;28;20544;-70
2022/10/14 02:50:05;;;;;;;60.87;4.20;;;;;;;;;;5112494;28;20451;-69
2022/10/14 02:52:34;;;;;;;61.70;5.07;;;;;;;;;;5112879;28;20446;-69
2022/10/14 02:55:01;;;;;;;60.27;4.83;;;;;;;;;;5112601;28;20448;-69
2022/10/14 02:57:28;;;;;;;63.60;5.80;;;;;;;;;;5112396;28;20484;-69
2022/10/14 02:59:55;;;;;;;61.07;5.50;;;;;;;;;;5111963;28;20966;-68
2022/10/14 03:02:22;;;;;;;62.57;5.17;;;;;;;;;;5112447;28;20454;-69
2022/10/14 03:04:49;;;;;;;61.60;4.87;;;;;;;;;;5112705;28;20450;-69
2022/10/14 03:07:16;;;;;;;61.20;4.53;;;;;;;;;;5112024;28;20471;-69
2022/10/14 03:09:45;;;;;;;60.53;5.33;;;;;;;;;;5112234;28;20448;-69
2022/10/14 03:12:12;;;;;;;59.60;4.07;;;;;;;;;;5112423;28;20453;-68
2022/10/14 03:14:39;;;;;;;62.53;4.80;;;;;;;;;;5112696;28;20829;-68
2022/10/14 03:17:06;;;;;;;58.60;3.90;;;;;;;;;;5112119;28;20487;-69
2022/10/14 03:19:33;;;;;;;58.80;3.63;;;;;;;;;;5111541;28;20451;-69
2022/10/14 03:22:00;;;;;;;62.50;4.40;;;;;;;;;;5112620;28;20448;-69
2022/10/14 03:24:28;;;;;;;58.80;3.90;;;;;;;;;;5112317;28;20447;-69
2022/10/14 03:26:56;;;;;;;59.80;4.90;;;;;;;;;;5112067;28;21004;-70
2022/10/14 03:29:23;;;;;;;59.17;4.00;;;;;;;;;;5111809;28;20442;-69
2022/10/14 03:31:50;;;;;;;59.37;4.30;;;;;;;;;;5111755;28;20442;-69
2022/10/14 03:34:17;;;;;;;59.57;4.00;;;;;;;;;;5112400;28;20468;-69
2022/10/14 03:36:44;;;;;;;60.40;3.73;;;;;;;;;;5111968;28;20491;-69
2022/10/14 03:39:12;;;;;;;58.07;3.50;;;;;;;;;;5112043;28;20442;-69
2022/10/14 03:41:39;;;;;;;59.70;4.07;;;;;;;;;;5112108;28;20945;-69
2022/10/14 03:44:07;;;;;;;60.57;4.43;;;;;;;;;;5112196;28;20446;-69
2022/10/14 03:46:35;;;;;;;59.20;4.90;;;;;;;;;;5111457;28;20472;-69
2022/10/14 03:49:02;;;;;;;59.30;3.37;;;;;;;;;;5111831;28;20448;-69
2022/10/14 03:51:29;;;;;;;59.40;4.03;;;;;;;;;;5112153;28;20448;-69
2022/10/14 03:53:56;;;;;;;58.97;4.20;;;;;;;;;;5112013;28;20454;-69
2022/10/14 03:56:23;;;;;;;59.17;4.00;;;;;;;;;;5111881;28;20498;-69
2022/10/14 03:58:50;;;;;;;59.87;3.50;;;;;;;;;;5111507;28;20447;-69
2022/10/14 04:01:18;;;;;;;59.60;4.53;;;;;;;;;;5112094;28;20459;-69
2022/10/14 04:03:46;;;;;;;59.50;4.63;;;;;;;;;;5112044;28;20446;-69
2022/10/14 04:06:13;;;;;;;59.00;3.23;;;;;;;;;;5112072;28;20475;-69
2022/10/14 04:08:40;;;;;;;60.07;4.47;;;;;;;;;;5111109;28;20942;-70
2022/10/14 04:11:07;;;;;;;61.37;4.30;;;;;;;;;;5111440;28;20452;-69
2022/10/14 04:13:35;;;;;;;60.93;5.30;;;;;;;;;;5115504;28;20932;-70
2022/10/14 04:16:03;;;;;;;61.17;5.43;;;;;;;;;;5115786;28;20873;-69
2022/10/14 04:18:32;;;;;;;59.27;4.13;;;;;;;;;;5115623;27;20813;-69
2022/10/14 04:21:00;;;;;;;61.40;4.50;;;;;;;;;;5115207;28;20444;-69
2022/10/14 04:23:27;;;;;;;60.17;4.33;;;;;;;;;;5115570;27;20452;-69
2022/10/14 04:25:54;;;;;;;61.30;4.57;;;;;;;;;;5115524;28;20479;-69
2022/10/14 04:28:21;;;;;;;59.67;4.40;;;;;;;;;;5115609;28;20439;-69
2022/10/14 04:30:49;;;;;;;62.30;4.20;;;;;;;;;;5115177;27;20941;-69
2022/10/14 04:33:16;;;;;;;59.67;4.13;;;;;;;;;;5114972;28;20443;-69
2022/10/14 04:35:44;;;;;;;59.90;4.30;;;;;;;;;;5115231;28;20486;-69
2022/10/14 04:38:11;;;;;;;60.33;4.80;;;;;;;;;;5115143;27;20505;-70
2022/10/14 04:40:38;;;;;;;59.27;3.90;;;;;;;;;;5115268;28;20463;-69
2022/10/14 04:43:06;;;;;;;60.17;4.70;;;;;;;;;;5114849;28;20454;-69
2022/10/14 04:45:33;;;;;;;60.10;4.50;;;;;;;;;;5115016;28;20842;-69
2022/10/14 04:48:00;;;;;;;59.40;4.30;;;;;;;;;;5115309;27;20447;-70
2022/10/14 04:50:27;;;;;;;59.60;4.90;;;;;;;;;;5114830;27;20454;-69
2022/10/14 04:52:55;;;;;;;60.33;4.97;;;;;;;;;;5114917;28;20449;-69
2022/10/14 04:55:22;;;;;;;59.17;3.93;;;;;;;;;;5114360;28;20469;-69
2022/10/14 04:57:49;;;;;;;61.70;3.87;;;;;;;;;;5115017;28;20488;-69
2022/10/14 05:00:17;;;;;;;63.60;4.23;;;;;;;;;;5114719;28;20446;-69
2022/10/14 05:02:44;;;;;;;58.57;3.97;;;;;;;;;;5114884;28;20548;-69
2022/10/14 05:05:11;;;;;;;60.07;4.17;;;;;;;;;;5114715;28;20445;-69
2022/10/14 05:07:38;;;;;;;58.20;3.47;;;;;;;;;;5114510;28;20956;-69
2022/10/14 05:10:08;;;;;;;59.37;3.60;;;;;;;;;;5114317;28;20967;-69
2022/10/14 05:12:35;;;;;;;60.00;3.97;;;;;;;;;;5114743;28;20460;-69
2022/10/14 05:15:04;;;;;;;62.83;5.23;;;;;;;;;;5114656;28;20448;-69
2022/10/14 05:17:31;;;;;;;58.60;3.90;;;;;;;;;;5114367;28;20985;-69
2022/10/14 05:19:58;;;;;;;60.67;5.97;;;;;;;;;;5114112;28;20480;-70
2022/10/14 05:22:25;;;;;;;60.40;4.30;;;;;;;;;;5114454;28;20543;-69
2022/10/14 05:24:52;;;;;;;58.80;4.10;;;;;;;;;;5114065;28;20452;-69
2022/10/14 05:27:21;;;;;;;60.70;4.60;;;;;;;;;;5114915;28;20475;-69
2022/10/14 05:29:48;;;;;;;59.53;4.23;;;;;;;;;;5113952;28;20448;-69
2022/10/14 05:32:15;;;;;;;59.70;4.27;;;;;;;;;;5114226;28;20447;-69
2022/10/14 05:34:43;;;;;;;59.07;4.10;;;;;;;;;;5113954;28;20909;-69
2022/10/14 05:37:10;;;;;;;62.03;4.70;;;;;;;;;;5114005;28;20500;-69
2022/10/14 05:39:37;;;;;;;59.10;4.30;;;;;;;;;;5113970;28;20457;-69
2022/10/14 05:42:04;;;;;;;58.77;3.30;;;;;;;;;;5114332;28;20458;-69
2022/10/14 05:44:32;;;;;;;59.67;4.30;;;;;;;;;;5113827;28;20474;-69
2022/10/14 05:46:59;;;;;;;59.03;3.73;;;;;;;;;;5113222;28;20467;-69
2022/10/14 05:49:27;;;;;;;59.80;4.70;;;;;;;;;;5113889;28;20452;-70
2022/10/14 05:51:54;;;;;;;60.37;4.07;;;;;;;;;;5114039;28;20447;-69
2022/10/14 05:54:21;;;;;;;60.17;4.00;;;;;;;;;;5113958;28;20459;-69
2022/10/14 05:56:48;;;;;;;63.90;5.17;;;;;;;;;;5113587;28;20483;-69
2022/10/14 05:59:15;;;;;;;60.60;4.77;;;;;;;;;;5112842;28;20471;-69
2022/10/14 06:01:43;;;;;;;62.73;4.90;;;;;;;;;;5113784;28;20467;-70
2022/10/14 06:04:16;;;;;;;58.97;3.90;;;;;;;;;;5113773;28;20458;-69
2022/10/14 06:06:43;;;;;;;59.10;3.70;;;;;;;;;;5113524;28;20471;-69
2022/10/14 06:09:10;;;;;;;61.07;4.60;;;;;;;;;;5113143;28;20840;-69
2022/10/14 06:11:37;;;;;;;59.43;3.90;;;;;;;;;;5113401;28;20543;-69
2022/10/14 06:14:05;;;;;;;59.33;4.30;;;;;;;;;;5113417;28;20818;-69
2022/10/14 06:16:32;;;;;;;58.70;3.93;;;;;;;;;;5113670;28;20475;-69
2022/10/14 06:19:00;;;;;;;59.40;4.60;;;;;;;;;;5112851;28;20503;-69
2022/10/14 06:21:27;;;;;;;59.23;4.40;;;;;;;;;;5112955;27;20451;-69
2022/10/14 06:23:54;;;;;;;62.47;5.17;;;;;;;;;;5113168;28;21008;-69
2022/10/14 06:26:21;;;;;;;60.80;5.10;;;;;;;;;;5113115;28;20533;-70
2022/10/14 06:28:49;;;;;;;60.07;4.60;;;;;;;;;;5112785;27;20446;-69
2022/10/14 06:31:16;;;;;;;59.27;4.07;;;;;;;;;;5113271;28;20546;-69
2022/10/14 06:33:43;;;;;;;59.30;4.80;;;;;;;;;;5112360;28;20476;-70
2022/10/14 06:36:12;;;;;;;59.57;5.13;;;;;;;;;;5112592;28;20483;-70
2022/10/14 06:38:39;;;;;;;60.67;4.80;;;;;;;;;;5112774;28;20490;-70
2022/10/14 06:41:07;;;;;;;65.37;6.03;;;;;;;;;;5112815;28;20456;-70
2022/10/14 06:43:34;;;;;;;60.60;4.23;;;;;;;;;;5112852;28;20447;-70
2022/10/14 06:46:02;;;;;;;60.60;4.77;;;;;;;;;;5112705;28;20563;-69
2022/10/14 06:48:29;;;;;;;60.37;4.90;;;;;;;;;;5112763;28;20538;-70
2022/10/14 06:50:58;;;;;;;62.00;5.03;;;;;;;;;;5112715;28;20476;-69
2022/10/14 06:53:27;;;;;;;60.63;4.23;;;;;;;;;;5112750;28;20453;-69
2022/10/14 06:55:58;;;;;;;61.87;5.87;;;;;;;;;;5112050;28;20468;-70
2022/10/14 06:58:25;;;;;;;59.20;4.33;;;;;;;;;;5112600;28;20476;-69
2022/10/14 07:00:52;;;;;;;59.90;4.80;;;;;;;;;;5112406;28;20588;-69
2022/10/14 07:03:19;;;;;;;59.60;4.33;;;;;;;;;;5112830;28;20453;-69
2022/10/14 07:05:46;;;;;;;61.07;4.60;;;;;;;;;;5112461;28;20551;-69
2022/10/14 07:08:13;;;;;;;62.27;5.13;;;;;;;;;;5112054;28;20770;-70
2022/10/14 07:10:42;;;;;;;59.47;3.83;;;;;;;;;;5112017;27;20451;-69
2022/10/14 07:13:09;;;;;;;62.17;5.70;;;;;;;;;;5112652;28;20478;-69
2022/10/14 07:15:38;;;;;;;59.63;4.47;;;;;;;;;;5112456;28;20468;-69
2022/10/14 07:18:06;;;;;;;63.27;4.57;;;;;;;;;;5112268;28;20479;-69
2022/10/14 07:20:33;;;;;;;60.33;4.90;;;;;;;;;;5111490;28;20467;-70
2022/10/14 07:23:01;;;;;;;60.17;4.77;;;;;;;;;;5112613;28;20450;-70
2022/10/14 07:25:28;;;;;;;60.10;4.87;;;;;;;;;;5112166;28;20477;-70
2022/10/14 07:27:56;;;;;;;60.37;4.77;;;;;;;;;;5112277;28;20440;-69
2022/10/14 07:30:23;;;;;;;58.97;4.10;;;;;;;;;;5111956;28;20452;-69
2022/10/14 07:32:50;;;;;;;60.23;4.33;;;;;;;;;;5111595;28;20974;-69
2022/10/14 07:35:18;;;;;;;59.60;3.97;;;;;;;;;;5111840;28;20487;-70
2022/10/14 07:37:45;;;;;;;62.57;3.63;;;;;;;;;;5112053;28;20484;-70
2022/10/14 07:40:13;;;;;;;60.43;4.37;;;;;;;;;;5111733;28;20968;-70
2022/10/14 07:42:40;;;;;;;60.47;4.67;;;;;;;;;;5112173;28;20826;-70
2022/10/14 07:45:14;;;;;;;61.10;4.50;;;;;;;;;;5111559;28;20441;-70
2022/10/14 07:47:41;;;;;;;60.97;4.40;;;;;;;;;;5114309;28;20440;-70
2022/10/14 07:50:09;;;;;;;59.77;4.43;;;;;;;;;;5116220;28;20447;-70
2022/10/14 07:52:37;;;;;;;61.50;5.23;;;;;;;;;;5116378;28;20808;-69
2022/10/14 07:55:04;;;;;;;60.40;5.37;;;;;;;;;;5116097;28;20449;-70
2022/10/14 07:57:31;;;;;;;60.10;4.70;;;;;;;;;;5115765;28;20477;-70
2022/10/14 07:59:59;;;;;;;61.47;4.50;;;;;;;;;;5115740;28;20999;-70
2022/10/14 08:02:27;;;;;;;63.50;6.00;;;;;;;;;;5115904;28;20938;-70
2022/10/14 08:04:55;;;;;;;59.40;4.30;;;;;;;;;;5116117;28;20545;-70
2022/10/14 08:07:24;;;;;;;61.40;5.53;;;;;;;;;;5115617;28;20820;-70
2022/10/14 08:09:52;;;;;;;60.10;4.30;;;;;;;;;;5115621;28;20496;-70
2022/10/14 08:12:19;;;;;;;60.40;4.30;;;;;;;;;;5115862;28;20445;-70
2022/10/14 08:14:46;;;;;;;61.33;6.10;;;;;;;;;;5116248;28;20441;-70
2022/10/14 08:17:13;;;;;;;60.57;4.70;;;;;;;;;;5115854;28;20473;-70
2022/10/14 08:19:42;;;;;;;59.70;3.90;;;;;;;;;;5114786;28;20485;-70
2022/10/14 08:22:10;;;;;;;62.30;5.13;;;;;;;;;;5115732;28;20825;-70
2022/10/14 08:24:37;;;;;;;59.40;4.10;;;;;;;;;;5115510;28;20454;-70
2022/10/14 08:27:05;;;;;;;60.50;4.30;;;;;;;;;;5115415;28;20465;-70
2022/10/14 08:29:33;;;;;;;58.40;3.60;;;;;;;;;;5115061;28;20488;-70
2022/10/14 08:32:00;;;;;;;60.07;4.40;;;;;;;;;;5114903;28;20457;-70
2022/10/14 08:34:27;;;;;;;59.03;4.00;;;;;;;;;;5115541;28;20458;-70
2022/10/14 08:36:55;;;;;;;61.07;4.10;;;;;;;;;;5115404;28;20473;-70
2022/10/14 08:39:22;;;;;;;63.30;5.17;;;;;;;;;;5114892;28;20490;-70
2022/10/14 08:41:56;;;;;;;61.93;4.90;;;;;;;;;;5114725;28;20822;-70
2022/10/14 08:44:26;;;;;;;63.63;6.17;;;;;;;;;;5115171;28;20445;-70
2022/10/14 08:46:54;;;;;;;60.53;3.63;;;;;;;;;;5115155;28;20465;-70
2022/10/14 08:49:24;;;;;;;60.60;5.00;;;;;;;;;;5115036;28;20445;-69
2022/10/14 08:51:54;;;;;;;68.70;5.00;;;;;;;;;;5115032;28;20445;-69
2022/10/14 08:54:27;;;;;;;60.07;4.50;;;;;;;;;;5114713;28;20948;-70
2022/10/14 08:56:55;;;;;;;60.60;4.40;;;;;;;;;;5115134;28;20488;-70
2022/10/14 08:59:23;;;;;;;60.40;4.77;;;;;;;;;;5114309;28;20485;-70
2022/10/14 09:01:52;;;;;;;61.77;5.50;;;;;;;;;;5114888;28;20451;-70
2022/10/14 09:04:20;;;;;;;66.17;6.50;;;;;;;;;;5114477;28;20929;-70
2022/10/14 09:06:48;;;;;;;69.30;7.47;;;;;;;;;;5114291;28;20555;-70
2022/10/14 09:09:18;;;;;;;63.67;7.10;;;;;;;;;;5114489;28;20938;-70
2022/10/14 09:11:50;;;;;;;65.17;7.10;;;;;;;;;;5115054;28;20476;-70
2022/10/14 09:14:18;;;;;;;66.27;7.50;;;;;;;;;;5114754;28;20445;-70
2022/10/14 09:16:46;;;;;;;61.23;5.83;;;;;;;;;;5113763;28;20809;-70
2022/10/14 09:19:15;;;;;;;61.33;6.23;;;;;;;;;;5114574;28;20478;-70
2022/10/14 09:21:46;;;;;;;60.80;4.73;;;;;;;;;;5115080;28;20445;-70
2022/10/14 09:24:15;;;;;;;61.33;6.03;;;;;;;;;;5114626;28;20441;-70
2022/10/14 09:26:43;;;;;;;63.87;6.83;;;;;;;;;;5114522;28;20603;-70
2022/10/14 09:29:21;;;;;;;61.87;5.90;;;;;;;;;;5113434;28;20445;-70
2022/10/14 09:31:48;;;;;;;61.80;5.53;;;;;;;;;;5114281;28;20476;-70
2022/10/14 09:34:19;;;;;;;61.17;4.70;;;;;;;;;;5114058;28;20483;-70
2022/10/14 09:36:47;;;;;;;62.03;5.17;;;;;;;;;;5114321;28;20465;-70
2022/10/14 09:39:14;;;;;;;60.40;4.73;;;;;;;;;;5113396;28;20579;-70
2022/10/14 09:41:42;;;;;;;60.50;5.20;;;;;;;;;;5113942;28;20483;-70
2022/10/14 09:44:24;;;;;;;62.77;4.30;;;;;;;;;;5113885;28;20548;-70
2022/10/14 09:46:53;;;;;;;59.27;4.07;;;;;;;;;;5114101;28;20465;-70
2022/10/14 09:49:23;;;;;;;61.53;4.33;;;;;;;;;;5113546;28;20528;-70
2022/10/14 09:51:51;;;;;;;60.20;4.80;;;;;;;;;;5113257;28;20449;-69
2022/10/14 09:54:23;;;;;;;62.07;6.23;;;;;;;;;;5113884;28;20445;-70
2022/10/14 09:56:50;;;;;;;59.60;4.60;;;;;;;;;;5113551;28;20461;-70
2022/10/14 09:59:18;;;;;;;60.20;4.73;;;;;;;;;;5113223;28;20489;-70
2022/10/14 10:01:51;;;;;;;59.50;4.53;;;;;;;;;;5113595;28;20936;-70
2022/10/14 10:04:26;;;;;;;60.67;4.20;;;;;;;;;;5113769;27;20446;-69
2022/10/14 10:06:53;;;;;;;63.60;3.87;;;;;;;;;;5112844;28;20469;-69
2022/10/14 10:09:21;;;;;;;59.20;3.80;;;;;;;;;;5112174;28;20811;-70
2022/10/14 10:11:48;;;;;;;60.73;4.60;;;;;;;;;;5113667;28;20450;-70
2022/10/14 10:14:17;;;;;;;58.77;3.30;;;;;;;;;;5113460;28;20450;-70
2022/10/14 10:16:44;;;;;;;58.77;3.50;;;;;;;;;;5113236;28;20527;-70
2022/10/14 10:19:26;;;;;;;59.40;3.63;;;;;;;;;;5112462;28;20488;-70
2022/10/14 10:21:54;;;;;;;61.93;4.30;;;;;;;;;;5113274;28;20460;-69
2022/10/14 10:24:22;;;;;;;59.37;3.63;;;;;;;;;;5113406;28;20448;-69
2022/10/14 10:26:50;;;;;;;59.10;3.70;;;;;;;;;;5113271;28;20829;-70
2022/10/14 10:29:24;;;;;;;59.00;4.27;;;;;;;;;;5112074;28;20437;-70
2022/10/14 10:32:05;;;;;;;59.17;4.00;;;;;;;;;;5113107;28;20449;-70
2022/10/14 10:34:40;;;;;;;60.10;3.50;;;;;;;;;;5112520;28;20471;-69
2022/10/14 10:37:15;;;;;;;58.67;3.50;;;;;;;;;;5113120;28;20461;-70
2022/10/14 10:39:46;;;;;;;58.63;3.57;;;;;;;;;;5112379;28;20480;-69
2022/10/14 10:42:19;;;;;;;60.87;4.33;;;;;;;;;;5111785;28;20453;-70
2022/10/14 10:44:54;;;;;;;58.50;3.20;;;;;;;;;;5112551;28;20464;-70
2022/10/14 10:47:30;;;;;;;59.07;3.50;;;;;;;;;;5112146;28;20484;-70
2022/10/14 10:50:13;;;;;;;58.47;3.50;;;;;;;;;;5112143;28;20464;-69
2022/10/14 10:52:47;;;;;;;59.60;4.10;;;;;;;;;;5110818;28;20457;-70
2022/10/14 10:55:18;;;;;;;63.60;6.10;;;;;;;;;;5111823;28;20444;-70
2022/10/14 10:57:51;;;;;;;62.20;6.23;;;;;;;;;;5112450;28;20453;-70
2022/10/14 11:00:21;;;;;;;64.50;7.00;;;;;;;;;;5111475;28;20477;-70
2022/10/14 11:02:54;;;;;;;61.73;6.43;;;;;;;;;;5111994;28;20930;-70
2022/10/14 11:05:28;;;;;;;58.87;4.10;;;;;;;;;;5111959;28;20465;-70
2022/10/14 11:13:38;;;;;;;59.03;3.43;;;;;;;;;;5112373;28;20798;-69
2022/10/14 11:16:07;;;;;;;59.07;4.20;;;;;;;;;;5112182;28;20557;-70
2022/10/14 11:18:45;;;;;;;59.97;4.80;;;;;;;;;;5112107;28;20516;-70
2022/10/14 11:21:20;;;;;;;59.67;3.60;;;;;;;;;;5112100;28;20460;-70
2022/10/14 11:23:58;;;;;;;59.73;3.77;;;;;;;;;;5111626;28;20553;-70
2022/10/14 11:26:32;;;;;;;58.70;3.63;;;;;;;;;;5111984;28;20465;-70
2022/10/14 11:29:03;;;;;;;58.90;3.80;;;;;;;;;;5112008;28;20445;-70
2022/10/14 11:31:33;;;;;;;58.07;3.20;;;;;;;;;;5112062;28;20442;-69
2022/10/14 11:34:07;;;;;;;59.40;3.60;;;;;;;;;;5111277;28;20467;-69
2022/10/14 11:36:40;;;;;;;59.43;4.10;;;;;;;;;;5112146;28;20469;-69
2022/10/14 11:39:12;;;;;;;58.60;3.40;;;;;;;;;;5111639;28;20832;-69
2022/10/14 11:41:47;;;;;;;59.27;4.27;;;;;;;;;;5112188;28;20459;-70
2022/10/14 11:44:16;;;;;;;58.47;3.73;;;;;;;;;;5112203;28;20445;-69
2022/10/14 11:46:46;;;;;;;62.37;4.50;;;;;;;;;;5111552;28;20469;-70
2022/10/14 11:49:17;;;;;;;60.07;4.20;;;;;;;;;;5111725;28;20454;-70
2022/10/14 11:51:48;;;;;;;58.70;3.43;;;;;;;;;;5112063;28;20747;-70
2022/10/14 11:54:17;;;;;;;58.67;3.70;;;;;;;;;;5112279;28;20456;-70
2022/10/14 11:56:47;;;;;;;59.90;4.50;;;;;;;;;;5111384;28;20988;-70
2022/10/14 11:59:26;;;;;;;60.20;4.60;;;;;;;;;;5111416;28;20477;-70
2022/10/14 12:01:57;;;;;;;59.47;3.90;;;;;;;;;;5111637;28;20930;-70
2022/10/14 12:04:28;;;;;;;59.30;3.80;;;;;;;;;;5112020;28;20445;-70
2022/10/14 12:07:00;;;;;;;60.30;4.07;;;;;;;;;;5111849;28;20472;-70
2022/10/14 12:09:31;;;;;;;59.30;3.93;;;;;;;;;;5112037;28;20442;-70
2022/10/14 12:12:00;;;;;;;59.67;3.97;;;;;;;;;;5111975;28;20449;-71
2022/10/14 12:14:31;;;;;;;59.80;4.00;;;;;;;;;;5111648;28;20460;-70
2022/10/14 12:16:59;;;;;;;59.00;4.20;;;;;;;;;;5111097;28;20469;-71
2022/10/14 12:19:27;;;;;;;60.57;4.20;;;;;;;;;;5111549;28;20493;-70
2022/10/14 12:21:57;;;;;;;59.60;4.10;;;;;;;;;;5111702;28;20442;-70
2022/10/14 12:24:30;;;;;;;63.40;5.47;;;;;;;;;;5111692;28;20968;-70
2022/10/14 12:26:58;;;;;;;59.70;3.93;;;;;;;;;;5111720;28;20554;-70
2022/10/14 12:29:25;;;;;;;58.30;3.20;;;;;;;;;;5110934;28;20489;-70
2022/10/14 12:32:07;;;;;;;59.00;3.47;;;;;;;;;;5111863;28;20441;-70
2022/10/14 12:34:35;;;;;;;59.20;4.33;;;;;;;;;;5115032;28;20969;-70
2022/10/14 12:37:36;;;;;;;59.50;3.73;;;;;;;;;;5115166;28;20981;-70
2022/10/14 12:40:22;;;;;;;59.80;3.97;;;;;;;;;;5114103;28;20492;-70
2022/10/14 12:42:59;;;;;;;58.07;3.30;;;;;;;;;;5115370;28;20441;-70
2022/10/14 12:45:27;;;;;;;60.70;3.60;;;;;;;;;;5115059;28;20503;-70
2022/10/14 12:48:02;;;;;;;59.57;3.40;;;;;;;;;;5115015;28;20445;-70
2022/10/14 12:50:31;;;;;;;57.40;2.73;;;;;;;;;;5114705;27;20959;-70
2022/10/14 12:52:59;;;;;;;58.20;2.87;;;;;;;;;;5110956;28;20457;-70
2022/10/14 12:55:27;;;;;;;59.20;3.33;;;;;;;;;;5114669;28;20981;-70
2022/10/14 12:57:56;;;;;;;58.67;3.17;;;;;;;;;;5114525;28;20452;-70
2022/10/14 13:00:32;;;;;;;57.70;2.50;;;;;;;;;;5114404;28;20477;-70
2022/10/14 13:03:01;;;;;;;57.60;2.50;;;;;;;;;;5114353;27;20455;-70
2022/10/14 13:05:31;;;;;;;58.20;2.87;;;;;;;;;;5114991;28;20560;-70
2022/10/14 13:08:11;;;;;;;58.27;3.10;;;;;;;;;;5114876;28;20454;-70
2022/10/14 13:10:47;;;;;;;58.20;2.50;;;;;;;;;;5114313;28;20452;-69
2022/10/14 13:13:33;;;;;;;57.87;2.60;;;;;;;;;;5114606;28;20941;-70
2022/10/14 13:16:02;;;;;;;57.90;2.83;;;;;;;;;;5114181;28;20465;-70
2022/10/14 13:18:37;;;;;;;57.97;2.83;;;;;;;;;;5114505;28;20450;-69
2022/10/14 13:21:05;;;;;;;58.70;2.77;;;;;;;;;;5114311;28;20852;-70
2022/10/14 13:23:37;;;;;;;60.00;3.53;;;;;;;;;;5114931;28;20441;-70
2022/10/14 13:26:11;;;;;;;58.17;2.97;;;;;;;;;;5113682;28;20469;-69
2022/10/14 13:28:43;;;;;;;57.70;2.53;;;;;;;;;;5113998;28;20456;-70
2022/10/14 13:31:13;;;;;;;57.87;2.83;;;;;;;;;;5114372;28;20848;-70
2022/10/14 13:33:43;;;;;;;58.50;3.03;;;;;;;;;;5114621;28;20805;-70
2022/10/14 13:36:14;;;;;;;58.80;3.57;;;;;;;;;;5114327;28;20469;-69
2022/10/14 13:38:44;;;;;;;58.70;3.27;;;;;;;;;;5113851;27;20798;-69
2022/10/14 13:41:15;;;;;;;58.30;3.43;;;;;;;;;;5114040;28;20493;-69
2022/10/14 13:43:43;;;;;;;57.53;2.60;;;;;;;;;;5113807;28;20449;-69
2022/10/14 13:46:14;;;;;;;58.00;3.00;;;;;;;;;;5113220;28;20484;-70
2022/10/14 13:48:43;;;;;;;57.90;2.80;;;;;;;;;;5113953;28;20464;-70
2022/10/14 13:51:22;;;;;;;63.20;4.07;;;;;;;;;;5114052;28;20842;-69
2022/10/14 13:53:53;;;;;;;58.00;2.60;;;;;;;;;;5113763;28;20441;-70
2022/10/14 13:56:22;;;;;;;60.77;4.20;;;;;;;;;;5113624;28;20554;-68
2022/10/14 13:58:49;;;;;;;59.80;3.80;;;;;;;;;;5113055;28;20449;-69
2022/10/14 14:01:18;;;;;;;58.30;3.23;;;;;;;;;;5113801;28;20481;-69
2022/10/14 14:03:47;;;;;;;58.00;2.63;;;;;;;;;;5113796;28;20456;-69
2022/10/14 14:06:15;;;;;;;58.80;3.60;;;;;;;;;;5113693;28;20461;-68
2022/10/14 14:08:47;;;;;;;61.03;3.13;;;;;;;;;;5112784;28;20449;-69
2022/10/14 14:11:19;;;;;;;57.50;2.40;;;;;;;;;;5113244;28;20972;-69
2022/10/14 14:13:52;;;;;;;57.77;2.33;;;;;;;;;;5113655;28;20452;-69
2022/10/14 14:16:22;;;;;;;58.00;2.70;;;;;;;;;;5113547;28;20458;-69
2022/10/14 14:18:51;;;;;;;58.90;2.50;;;;;;;;;;5113067;28;20540;-69
2022/10/14 14:21:20;;;;;;;57.80;2.70;;;;;;;;;;5112827;28;20599;-69
2022/10/14 14:23:51;;;;;;;58.00;2.60;;;;;;;;;;5113239;27;20445;-69
2022/10/14 14:26:19;;;;;;;57.70;2.53;;;;;;;;;;5113151;28;21011;-68
2022/10/14 14:28:47;;;;;;;59.20;2.93;;;;;;;;;;5113205;28;20448;-69
2022/10/14 14:31:16;;;;;;;58.00;2.53;;;;;;;;;;5113047;28;20449;-69
2022/10/14 14:33:45;;;;;;;58.13;2.87;;;;;;;;;;5112581;28;20475;-69
2022/10/14 14:36:14;;;;;;;57.50;2.57;;;;;;;;;;5112861;28;20492;-70
2022/10/14 14:38:45;;;;;;;57.87;2.73;;;;;;;;;;5112783;28;20448;-69
2022/10/14 14:41:17;;;;;;;58.00;3.00;;;;;;;;;;5110782;28;21039;-70
2022/10/14 14:43:46;;;;;;;57.73;2.47;;;;;;;;;;5110945;28;20909;-69
2022/10/14 14:46:18;;;;;;;57.97;2.70;;;;;;;;;;5111336;28;20476;-69
2022/10/14 14:48:47;;;;;;;58.10;3.53;;;;;;;;;;5110440;28;20446;-69